createdAt,value
2023-05-10T00:00:38.210Z,100889.72
2023-05-10T00:03:05.990Z,100877.53
2023-05-10T00:05:33.629Z,100880.91
2023-05-10T00:08:10.033Z,100887.81
2023-05-10T00:10:42.597Z,100875.78
2023-05-10T00:13:14.046Z,100879.22
2023-05-10T00:15:43.530Z,100882.56
2023-05-10T00:18:20.342Z,100877.31
2023-05-10T00:20:50.815Z,100877.31
2023-05-10T00:23:25.090Z,100875.66
2023-05-10T00:25:51.980Z,100869.44
2023-05-10T00:28:23.554Z,100872.94
2023-05-10T00:30:51.127Z,100868.63
2023-05-10T00:33:20.768Z,100870.31
2023-05-10T00:35:47.412Z,100876.28
2023-05-10T00:38:14.008Z,100872.06
2023-05-10T00:40:40.709Z,100872.94
2023-05-10T00:43:07.318Z,100867.78
2023-05-10T00:45:37.491Z,100879.03
2023-05-10T00:48:05.675Z,100872.06
2023-05-10T00:50:33.886Z,100865.06
2023-05-10T00:53:02.076Z,100870.94
2023-05-10T00:55:28.845Z,100869.97
2023-05-10T00:57:56.808Z,100877.66
2023-05-10T01:00:23.364Z,100878.47
2023-05-10T01:02:51.063Z,100875.03
2023-05-10T01:05:17.806Z,100875.03
2023-05-10T01:07:45.808Z,100874.06
2023-05-10T01:10:15.216Z,100871.44
2023-05-10T01:12:52.690Z,100867.22
2023-05-10T01:15:24.028Z,100863.91
2023-05-10T01:18:16.372Z,100879.03
2023-05-10T01:21:16.612Z,100876.28
2023-05-10T01:24:08.023Z,100875.44
2023-05-10T01:27:20.360Z,100879.66
2023-05-10T01:30:15.843Z,100869.97
2023-05-10T01:33:53.388Z,100871.16
2023-05-10T01:36:31.786Z,100875.66
2023-05-10T01:39:02.232Z,100873.88
2023-05-10T01:41:49.372Z,100877.31
2023-05-10T01:44:27.341Z,100876.28
2023-05-10T01:47:08.494Z,100884.06
2023-05-10T01:49:56.352Z,100874.41
2023-05-10T01:52:38.704Z,100879.66
2023-05-10T01:55:16.320Z,100875.22
2023-05-10T01:57:44.855Z,100871.66
2023-05-10T02:00:15.943Z,100875.09
2023-05-10T02:02:46.987Z,100874.59
2023-05-10T02:05:19.466Z,100879.13
2023-05-10T02:07:46.527Z,100883.66
2023-05-10T02:10:15.519Z,100877.31
2023-05-10T02:12:44.633Z,100882.56
2023-05-10T02:15:16.596Z,100887.81
2023-05-10T02:17:44.759Z,100884.38
2023-05-10T02:20:13.764Z,100884.28
2023-05-10T02:22:41.553Z,100890.22
2023-05-10T02:25:10.311Z,100895.47
2023-05-10T02:27:43.752Z,100886.91
2023-05-10T02:30:20.133Z,100894.78
2023-05-10T02:32:53.001Z,100894.03
2023-05-10T02:35:29.432Z,100897.59
2023-05-10T02:37:58.159Z,100894.97
2023-05-10T02:40:29.088Z,100902.22
2023-05-10T02:42:58.410Z,100903.16
2023-05-10T02:45:29.857Z,100907.56
2023-05-10T02:47:57.331Z,100911.03
2023-05-10T02:50:29.093Z,100911.03
2023-05-10T02:53:03.037Z,100903.16
2023-05-10T02:55:36.507Z,100913.84
2023-05-10T02:58:04.088Z,100901.81
2023-05-10T03:00:31.146Z,100906.44
2023-05-10T03:02:57.937Z,100909.56
2023-05-10T03:05:30.350Z,100914.91
2023-05-10T03:07:57.527Z,100904.84
2023-05-10T03:10:30.341Z,100913.75
2023-05-10T03:13:13.847Z,100910.66
2023-05-10T03:15:50.793Z,100912.78
2023-05-10T03:18:29.397Z,100913.72
2023-05-10T03:21:06.322Z,100917.28
2023-05-10T03:23:52.529Z,100927.69
2023-05-10T03:26:28.401Z,100932.09
2023-05-10T03:28:57.906Z,100927.69
2023-05-10T03:31:24.625Z,100929.34
2023-05-10T03:33:52.698Z,100932.81
2023-05-10T03:36:20.096Z,100939.63
2023-05-10T03:38:46.717Z,100936.19
2023-05-10T03:41:16.347Z,100933.44
2023-05-10T03:43:42.987Z,100928.41
2023-05-10T03:46:09.475Z,100926.53
2023-05-10T03:48:36.008Z,100932.72
2023-05-10T03:51:02.595Z,100925.97
2023-05-10T03:53:30.132Z,100923.34
2023-05-10T03:55:58.018Z,100929.34
2023-05-10T03:58:24.768Z,100931.22
2023-05-10T04:08:55.031Z,100935.84
2023-05-10T04:10:36.667Z,100930.38
2023-05-10T04:11:22.987Z,100931.41
2023-05-10T04:13:49.744Z,100934.78
2023-05-10T04:16:16.280Z,100941.06
2023-05-10T04:18:42.967Z,100945.41
2023-05-10T04:21:14.555Z,100934.78
2023-05-10T04:23:41.691Z,100941.72
2023-05-10T04:26:08.537Z,100935.00
2023-05-10T04:28:35.182Z,100935.75
2023-05-10T04:31:09.184Z,100933.84
2023-05-10T04:33:36.723Z,100937.41
2023-05-10T04:36:04.501Z,100934.78
2023-05-10T04:38:31.939Z,100935.63
2023-05-10T04:41:07.560Z,100936.47
2023-05-10T04:46:29.576Z,100934.28
2023-05-10T04:48:59.068Z,100940.34
2023-05-10T04:51:39.040Z,100949.00
2023-05-10T04:54:07.666Z,100950.59
2023-05-10T04:56:52.340Z,100955.00
2023-05-10T04:59:22.992Z,100955.72
2023-05-10T05:02:00.007Z,100960.03
2023-05-10T05:04:31.865Z,100958.13
2023-05-10T05:06:58.464Z,100965.91
2023-05-10T05:09:32.777Z,100957.94
2023-05-10T05:12:07.097Z,100965.72
2023-05-10T05:14:37.931Z,100963.94
2023-05-10T05:17:13.606Z,100966.44
2023-05-10T05:19:46.268Z,100971.59
2023-05-10T05:22:15.124Z,100978.63
2023-05-10T05:24:49.429Z,100974.22
2023-05-10T05:27:16.140Z,100978.31
2023-05-10T05:29:50.517Z,100985.22
2023-05-10T05:32:26.673Z,100985.13
2023-05-10T05:38:53.065Z,100984.50
2023-05-10T05:41:45.754Z,100981.00
2023-05-10T05:44:15.774Z,100992.13
2023-05-10T05:46:45.620Z,100992.25
2023-05-10T05:52:07.793Z,100994.75
2023-05-10T05:54:36.662Z,100997.63
2023-05-10T05:57:06.271Z,100995.19
2023-05-10T05:59:38.473Z,101000.53
2023-05-10T06:02:09.695Z,101008.53
2023-05-10T06:04:44.674Z,101005.25
2023-05-10T06:07:20.680Z,101015.94
2023-05-10T06:09:57.394Z,101011.75
2023-05-10T06:12:27.129Z,101018.38
2023-05-10T06:15:07.432Z,101014.69
2023-05-10T06:17:39.124Z,101019.00
2023-05-10T06:20:10.789Z,101019.41
2023-05-10T06:23:05.080Z,101028.75
2023-05-10T06:45:18.329Z,101027.41
2023-05-10T06:47:38.677Z,101038.56
2023-05-10T06:50:36.584Z,101031.72
2023-05-10T06:56:01.855Z,101046.84
2023-05-10T06:58:31.542Z,101044.66
2023-05-10T07:01:06.964Z,101043.09
2023-05-10T07:07:37.014Z,101050.31
2023-05-10T07:10:08.824Z,101060.72
2023-05-10T07:12:41.164Z,101050.63
2023-05-10T07:15:08.482Z,101063.44
2023-05-10T07:17:36.686Z,101068.50
2023-05-10T07:20:04.725Z,101058.53
2023-05-10T07:22:31.311Z,101061.47
2023-05-10T07:25:02.077Z,101063.38
2023-05-10T07:30:32.037Z,101075.13
2023-05-10T07:33:05.009Z,101078.06
2023-05-10T07:35:35.729Z,101083.53
2023-05-10T07:38:05.006Z,101084.56
2023-05-10T07:45:56.434Z,101091.31
2023-05-10T07:55:20.700Z,101089.44
2023-05-10T07:58:12.655Z,101090.75
2023-05-10T08:11:59.861Z,101104.13
2023-05-10T08:20:42.479Z,101120.41
2023-05-10T08:28:33.891Z,101116.41
2023-05-10T08:31:55.346Z,101126.63
2023-05-10T08:34:57.810Z,101123.88
2023-05-10T08:38:00.962Z,101133.13
2023-05-10T08:40:34.126Z,101131.34
2023-05-10T08:43:16.974Z,101139.84
2023-05-10T08:46:42.685Z,101148.28
2023-05-10T08:52:33.846Z,101145.31
2023-05-10T08:55:00.517Z,101147.19
2023-05-10T08:57:27.654Z,101154.88
2023-05-10T08:59:54.619Z,101158.13
2023-05-10T09:02:22.171Z,101155.22
2023-05-10T09:04:50.449Z,101155.16
2023-05-10T09:07:17.967Z,101155.94
2023-05-10T09:09:45.403Z,101148.78
2023-05-10T09:12:12.616Z,101152.34
2023-05-10T09:14:39.824Z,101150.91
2023-05-10T09:17:35.016Z,101142.78
2023-05-10T09:23:01.485Z,101152.41
2023-05-10T09:25:28.282Z,101164.78
2023-05-10T09:27:56.182Z,101161.66
2023-05-10T09:30:28.706Z,101156.50
2023-05-10T09:32:56.696Z,101160.59
2023-05-10T09:35:27.979Z,101157.94
2023-05-10T09:37:58.866Z,101167.34
2023-05-10T09:40:31.402Z,101164.00
2023-05-10T09:43:09.335Z,101174.81
2023-05-10T09:45:38.493Z,101179.75
2023-05-10T09:48:08.110Z,101180.19
2023-05-10T09:50:47.863Z,101177.72
2023-05-10T09:53:25.371Z,101185.88
2023-05-10T09:56:14.501Z,101184.72
2023-05-10T09:59:29.051Z,101192.44
2023-05-10T10:09:20.096Z,101184.69
2023-05-10T10:14:44.090Z,101190.56
2023-05-10T10:17:31.892Z,101195.47
2023-05-10T10:20:27.528Z,101195.84
2023-05-10T10:22:58.160Z,101200.41
2023-05-10T10:25:31.788Z,101200.66
2023-05-10T10:28:20.429Z,101200.41
2023-05-10T10:31:20.098Z,101199.00
2023-05-10T10:34:23.472Z,101200.16
2023-05-10T10:37:00.402Z,101204.13
2023-05-10T10:39:39.793Z,101205.66
2023-05-10T10:42:19.695Z,101210.34
2023-05-10T10:45:02.844Z,101209.63
2023-05-10T10:47:37.799Z,101200.75
2023-05-10T10:50:17.070Z,101210.25
2023-05-10T10:52:49.777Z,101203.63
2023-05-10T11:01:24.554Z,101213.31
2023-05-10T11:04:30.012Z,101212.63
2023-05-10T11:13:17.339Z,101205.22
2023-05-10T11:19:05.265Z,101211.19
2023-05-10T11:21:33.701Z,101209.72
2023-05-10T11:29:24.913Z,101220.31
2023-05-10T11:32:21.610Z,101216.72
2023-05-10T11:38:59.601Z,101220.63
2023-05-10T11:41:27.954Z,101222.31
2023-05-10T11:44:24.387Z,101213.09
2023-05-10T11:46:56.835Z,101217.19
2023-05-10T11:49:38.720Z,101214.16
2023-05-10T11:54:55.818Z,101219.50
2023-05-10T11:57:28.578Z,101219.91
2023-05-10T11:59:58.585Z,101219.84
2023-05-10T12:02:25.568Z,101223.78
2023-05-10T12:04:53.769Z,101228.31
2023-05-10T12:07:20.396Z,101226.22
2023-05-10T12:10:11.212Z,101227.44
2023-05-10T12:12:51.193Z,101224.06
2023-05-10T12:15:25.950Z,101228.56
2023-05-10T12:17:52.831Z,101231.88
2023-05-10T12:20:28.728Z,101223.97
2023-05-10T12:23:00.317Z,101228.25
2023-05-10T12:25:31.885Z,101228.16
2023-05-10T12:28:02.158Z,101232.16
2023-05-10T12:30:30.322Z,101223.34
2023-05-10T12:33:14.732Z,101223.47
2023-05-10T12:35:49.095Z,101228.69
2023-05-10T12:38:33.730Z,101225.06
2023-05-10T12:41:01.722Z,101223.81
2023-05-10T12:43:28.408Z,101216.97
2023-05-10T12:45:55.051Z,101222.72
2023-05-10T12:48:21.667Z,101222.44
2023-05-10T12:50:48.709Z,101227.84
2023-05-10T12:53:19.550Z,101222.56
2023-05-10T12:55:46.885Z,101229.28
2023-05-10T12:58:17.933Z,101227.56
2023-05-10T13:00:54.555Z,101234.00
2023-05-10T13:03:22.275Z,101245.09
2023-05-10T13:05:49.344Z,101238.38
2023-05-10T13:08:17.848Z,101236.38
2023-05-10T13:10:45.053Z,101244.69
2023-05-10T13:13:12.834Z,101245.72
2023-05-10T13:15:39.664Z,101248.53
2023-05-10T13:18:07.476Z,101267.69
2023-05-10T13:20:34.361Z,101264.69
2023-05-10T13:23:02.399Z,101260.97
2023-05-10T13:25:30.128Z,101256.03
2023-05-10T13:27:56.903Z,101264.63
2023-05-10T13:30:27.835Z,101267.09
2023-05-10T13:32:55.018Z,101280.78
2023-05-10T13:35:22.915Z,101276.63
2023-05-10T13:37:51.182Z,101281.78
2023-05-10T13:40:18.659Z,101294.38
2023-05-10T13:42:45.541Z,101294.88
2023-05-10T13:45:44.880Z,101295.13
2023-05-10T13:48:37.461Z,101301.66
2023-05-10T13:51:23.246Z,101300.22
2023-05-10T13:53:52.036Z,101302.09
2023-05-10T13:56:20.161Z,101299.88
2023-05-10T13:58:49.865Z,101296.75
2023-05-10T14:01:17.283Z,101297.19
2023-05-10T14:03:49.036Z,101295.50
2023-05-10T14:06:15.884Z,101303.91
2023-05-10T14:11:54.362Z,101303.69
2023-05-10T14:20:10.579Z,101305.25
2023-05-10T14:22:37.181Z,101300.72
2023-05-10T14:25:05.632Z,101309.34
2023-05-10T14:27:34.019Z,101312.69
2023-05-10T14:30:01.116Z,101307.44
2023-05-10T14:32:29.731Z,101310.59
2023-05-10T14:35:13.331Z,101305.94
2023-05-10T14:37:41.441Z,101300.81
2023-05-10T14:44:16.877Z,101307.97
2023-05-10T14:46:43.820Z,101299.84
2023-05-10T14:49:11.752Z,101302.47
2023-05-10T14:51:38.270Z,101299.84
2023-05-10T14:54:04.897Z,101301.31
2023-05-10T14:56:31.523Z,101299.06
2023-05-10T14:58:58.363Z,101295.03
2023-05-10T15:01:25.458Z,101305.00
2023-05-10T15:03:52.579Z,101300.84
2023-05-10T15:06:24.736Z,101306.72
2023-05-10T15:08:54.171Z,101304.59
2023-05-10T15:11:22.885Z,101307.63
2023-05-10T15:13:50.683Z,101298.59
2023-05-10T15:16:17.402Z,101306.63
2023-05-10T15:18:44.270Z,101309.34
2023-05-10T15:21:11.269Z,101297.63
2023-05-10T15:23:37.838Z,101305.16
2023-05-10T15:26:04.712Z,101297.72
2023-05-10T15:28:32.539Z,101296.66
2023-05-10T15:31:01.605Z,101303.78
2023-05-10T15:33:28.569Z,101301.38
2023-05-10T15:35:55.866Z,101306.59
2023-05-10T15:38:26.876Z,101300.34
2023-05-10T15:41:06.303Z,101304.53
2023-05-10T15:43:33.356Z,101309.31
2023-05-10T15:46:00.294Z,101302.59
2023-05-10T15:48:27.402Z,101309.00
2023-05-10T15:50:53.971Z,101310.06
2023-05-10T15:53:20.494Z,101311.97
2023-05-10T15:55:47.500Z,101312.69
2023-05-10T15:58:16.912Z,101312.59
2023-05-10T16:00:43.795Z,101319.53
2023-05-10T16:03:10.987Z,101318.94
2023-05-10T16:05:40.760Z,101315.59
2023-05-10T16:08:07.508Z,101318.72
2023-05-10T16:10:34.314Z,101321.81
2023-05-10T16:13:26.029Z,101323.84
2023-05-10T16:15:54.702Z,101330.09
2023-05-10T16:18:21.593Z,101328.91
2023-05-10T16:21:19.113Z,101329.72
2023-05-10T16:23:35.854Z,101328.00
2023-05-10T16:26:05.677Z,101331.47
2023-05-10T16:28:32.426Z,101339.00
2023-05-10T16:31:01.654Z,101336.97
2023-05-10T16:33:43.318Z,101333.03
2023-05-10T16:36:12.960Z,101333.75
2023-05-10T16:38:42.184Z,101338.78
2023-05-10T16:41:13.679Z,101332.66
2023-05-10T16:43:44.334Z,101341.09
2023-05-10T16:46:12.522Z,101335.38
2023-05-10T16:48:39.357Z,101323.38
2023-05-10T16:51:06.095Z,101331.28
2023-05-10T16:53:33.010Z,101334.16
2023-05-10T16:55:59.691Z,101336.81
2023-05-10T16:58:26.573Z,101335.50
2023-05-10T17:00:53.087Z,101334.53
2023-05-10T17:03:22.749Z,101335.97
2023-05-10T17:05:52.267Z,101342.34
2023-05-10T17:11:34.144Z,101337.19
2023-05-10T17:14:08.781Z,101342.31
2023-05-10T17:16:43.116Z,101335.84
2023-05-10T17:19:19.683Z,101346.53
2023-05-10T17:22:01.340Z,101347.50
2023-05-10T17:24:40.243Z,101355.88
2023-05-10T17:31:17.173Z,101353.72
2023-05-10T17:33:42.164Z,101356.72
2023-05-10T17:36:11.233Z,101364.94
2023-05-10T17:38:43.452Z,101364.34
2023-05-10T17:41:11.704Z,101361.59
2023-05-10T17:43:38.199Z,101370.22
2023-05-10T17:47:19.638Z,101374.28
2023-05-10T17:49:54.874Z,101372.84
2023-05-10T17:52:25.428Z,101376.31
2023-05-10T17:54:55.495Z,101385.63
2023-05-10T17:57:35.847Z,101387.28
2023-05-10T18:00:18.253Z,101386.50
2023-05-10T18:02:45.761Z,101386.72
2023-05-10T18:05:16.161Z,101383.88
2023-05-10T18:07:46.639Z,101383.63
2023-05-10T18:13:43.004Z,101387.22
2023-05-10T18:16:12.655Z,101392.34
2023-05-10T18:18:44.458Z,101394.81
2023-05-10T18:24:00.327Z,101396.56
2023-05-10T18:26:27.197Z,101389.53
2023-05-10T18:29:54.261Z,101391.19
2023-05-10T18:31:55.626Z,101397.91
2023-05-10T18:34:28.432Z,101402.78
2023-05-10T18:36:55.066Z,101399.28
2023-05-10T18:39:23.345Z,101394.56
2023-05-10T18:41:51.870Z,101393.22
2023-05-10T18:44:19.103Z,101397.97
2023-05-10T18:46:52.057Z,101400.81
2023-05-10T18:49:23.043Z,101402.84
2023-05-10T18:51:51.270Z,101410.34
2023-05-10T18:54:23.173Z,101410.56
2023-05-10T18:56:52.049Z,101409.09
2023-05-10T18:59:18.556Z,101407.88
2023-05-10T19:01:50.222Z,101415.84
2023-05-10T19:04:34.256Z,101417.78
2023-05-10T19:07:05.081Z,101417.13
2023-05-10T19:09:34.029Z,101417.56
2023-05-10T19:12:09.084Z,101418.94
2023-05-10T19:22:31.523Z,101431.16
2023-05-10T19:25:03.405Z,101432.44
2023-05-10T19:27:32.749Z,101430.00
2023-05-10T19:29:59.228Z,101436.53
2023-05-10T19:32:29.735Z,101436.72
2023-05-10T19:34:57.086Z,101435.25
2023-05-10T19:37:28.156Z,101440.72
2023-05-10T19:40:12.613Z,101455.06
2023-05-10T19:42:39.308Z,101452.41
2023-05-10T19:45:17.853Z,101455.88
2023-05-10T19:47:51.527Z,101457.78
2023-05-10T19:50:25.065Z,101462.19
2023-05-10T19:52:58.532Z,101451.03
2023-05-10T19:55:29.314Z,101452.31
2023-05-10T19:57:59.492Z,101454.38
2023-05-10T20:00:27.323Z,101455.81
2023-05-10T20:02:54.386Z,101455.19
2023-05-10T20:05:21.448Z,101468.34
2023-05-10T20:07:51.173Z,101462.44
2023-05-10T20:10:27.225Z,101466.13
2023-05-10T20:12:54.980Z,101462.75
2023-05-10T20:15:25.532Z,101459.56
2023-05-10T20:17:54.117Z,101456.41
2023-05-10T20:20:32.653Z,101468.72
2023-05-10T20:22:59.388Z,101466.94
2023-05-10T20:25:27.224Z,101474.63
2023-05-10T20:27:53.844Z,101472.72
2023-05-10T20:30:23.124Z,101470.19
2023-05-10T20:32:50.445Z,101471.03
2023-05-10T20:35:19.237Z,101470.09
2023-05-10T20:37:46.068Z,101475.53
2023-05-10T20:40:15.480Z,101470.50
2023-05-10T20:42:42.173Z,101480.91
2023-05-10T20:45:12.010Z,101479.78
2023-05-10T20:47:40.094Z,101478.09
2023-05-10T20:50:08.664Z,101479.88
2023-05-10T20:52:35.311Z,101475.34
2023-05-10T20:55:01.927Z,101478.84
2023-05-10T20:57:28.677Z,101475.34
2023-05-10T20:59:55.593Z,101482.31
2023-05-10T21:02:22.394Z,101477.97
2023-05-10T21:04:48.873Z,101477.91
2023-05-10T21:07:16.853Z,101482.31
2023-05-10T21:09:43.653Z,101472.63
2023-05-10T21:12:10.357Z,101472.53
2023-05-10T21:14:37.384Z,101480.31
2023-05-10T21:17:04.464Z,101476.94
2023-05-10T21:19:32.296Z,101470.09
2023-05-10T21:22:02.184Z,101477.25
2023-05-10T21:24:28.689Z,101474.81
2023-05-10T21:26:55.276Z,101476.81
2023-05-10T21:29:22.061Z,101476.06
2023-05-10T21:31:50.956Z,101475.13
2023-05-10T21:34:18.236Z,101470.91
2023-05-10T21:36:44.814Z,101467.63
2023-05-10T21:39:11.544Z,101461.59
2023-05-10T21:41:37.988Z,101453.81
2023-05-10T21:44:05.130Z,101459.28
2023-05-10T21:46:31.900Z,101468.06
2023-05-10T21:48:58.448Z,101465.63
2023-05-10T21:51:24.946Z,101466.59
2023-05-10T21:53:51.816Z,101460.69
2023-05-10T21:56:18.532Z,101459.09
2023-05-10T21:58:45.052Z,101464.53
2023-05-10T22:01:15.142Z,101468.22
2023-05-10T22:03:41.714Z,101465.81
2023-05-10T22:06:08.881Z,101467.78
2023-05-10T22:08:35.528Z,101467.84
2023-05-10T22:11:08.281Z,101461.69
2023-05-10T22:13:35.004Z,101473.03
2023-05-10T22:16:02.032Z,101477.53
2023-05-10T22:18:28.987Z,101485.41
2023-05-10T22:20:58.937Z,101478.47
2023-05-10T22:23:25.435Z,101485.41
2023-05-10T22:25:52.251Z,101486.38
2023-05-10T22:28:18.733Z,101477.00
2023-05-10T22:30:45.407Z,101472.59
2023-05-10T22:33:12.269Z,101480.34
2023-05-10T22:35:38.829Z,101477.72
2023-05-10T22:38:05.377Z,101482.25
2023-05-10T22:40:32.235Z,101478.84
2023-05-10T22:42:58.779Z,101482.25
2023-05-10T22:45:25.719Z,101477.00
2023-05-10T22:47:53.467Z,101478.03
2023-05-10T22:50:21.092Z,101485.78
2023-05-10T22:52:48.220Z,101481.38
2023-05-10T22:55:15.385Z,101480.53
2023-05-10T22:57:42.015Z,101479.69
2023-05-10T23:00:09.497Z,101483.28
2023-05-10T23:02:36.153Z,101474.75
2023-05-10T23:05:05.348Z,101485.25
2023-05-10T23:07:32.307Z,101482.72
2023-05-10T23:09:58.775Z,101485.81
2023-05-10T23:12:25.570Z,101489.28
2023-05-10T23:14:52.404Z,101490.31
2023-05-10T23:17:18.872Z,101490.50
2023-05-10T23:19:45.251Z,101487.16
2023-05-10T23:22:12.036Z,101497.66
2023-05-10T23:24:39.191Z,101499.50
2023-05-10T23:27:05.917Z,101497.84
2023-05-10T23:29:33.100Z,101498.69
2023-05-10T23:32:00.208Z,101502.06
2023-05-10T23:34:26.763Z,101498.59
2023-05-10T23:36:53.508Z,101504.59
2023-05-10T23:39:20.669Z,101506.47
2023-05-10T23:41:47.401Z,101497.06
2023-05-10T23:44:14.142Z,101502.25
2023-05-10T23:46:40.781Z,101500.53
2023-05-10T23:49:07.572Z,101503.09
2023-05-10T23:51:34.104Z,101507.50
2023-05-10T23:54:00.655Z,101499.69
2023-05-10T23:56:36.499Z,101500.75
2023-05-10T23:59:03.229Z,101499.16
